Time;durP1;ratioP1;P1;durP2;ratioP2;P2;SDS_P1;SDS_P2;PMS_P1;PMS_P2;Temp;Humidity;BMP_temperature;BMP_pressure;BME280_temperature;BME280_humidity;BME280_pressure;Samples;Min_cycle;Max_cycle;Signal;HPM_P1;HPM_P2
2021/12/01 00:00:37;;;;;;;;;;;9.40;7.30;;;;;;4990932;28;19914;-85
2021/12/01 00:03:03;;;;;;;;;;;9.40;4.50;;;;;;5008077;28;19913;-85
2021/12/01 00:05:30;;;;;;;;;;;9.40;1.00;;;;;;5003928;28;19933;-85
2021/12/01 00:07:55;;;;;;;;;;;9.40;1.00;;;;;;5005036;28;19994;-86
2021/12/01 00:10:22;;;;;;;;;;;9.50;1.00;;;;;;5001565;28;19921;-85
2021/12/01 00:12:48;;;;;;;;;;;9.50;1.00;;;;;;5004542;28;19914;-86
2021/12/01 00:15:14;;;;;;;;;;;9.50;1.00;;;;;;4987831;28;19918;-86
2021/12/01 00:17:39;;;;;;;;;;;9.50;1.00;;;;;;4998857;28;19924;-85
2021/12/01 00:20:06;;;;;;;;;;;9.50;1.00;;;;;;4988173;28;19917;-85
2021/12/01 00:22:31;;;;;;;;;;;9.50;1.00;;;;;;5011382;28;19963;-85
2021/12/01 00:24:57;;;;;;;;;;;9.50;1.00;;;;;;5008473;28;19963;-86
2021/12/01 00:27:22;;;;;;;;;;;9.50;1.00;;;;;;5002438;28;19914;-85
2021/12/01 00:29:49;;;;;;;;;;;9.50;1.00;;;;;;4995650;28;19921;-85
2021/12/01 00:32:15;;;;;;;;;;;9.50;1.00;;;;;;4995816;28;19964;-85
2021/12/01 00:34:41;;;;;;;;;;;9.50;1.00;;;;;;4985231;28;20334;-86
2021/12/01 00:37:06;;;;;;;;;;;9.50;1.00;;;;;;5013381;28;20067;-85
2021/12/01 00:39:32;;;;;;;;;;;9.40;1.00;;;;;;5010622;28;19920;-85
2021/12/01 00:41:59;;;;;;;;;;;9.40;1.00;;;;;;5008226;28;19956;-86
2021/12/01 00:44:24;;;;;;;;;;;9.40;1.00;;;;;;4996812;28;19920;-85
2021/12/01 00:47:04;;;;;;;;;;;9.40;1.00;;;;;;5001721;28;19913;-86
2021/12/01 00:49:30;;;;;;;;;;;9.40;1.00;;;;;;4993341;28;19922;-86
2021/12/01 00:51:56;;;;;;;;;;;9.40;1.00;;;;;;4997086;28;19914;-86
2021/12/01 00:54:21;;;;;;;;;;;9.40;1.00;;;;;;4993931;28;20005;-85
2021/12/01 00:56:49;;;;;;;;;;;9.40;1.00;;;;;;5007664;28;20366;-85
2021/12/01 00:59:14;;;;;;;;;;;9.40;1.00;;;;;;5008712;28;19909;-86
2021/12/01 01:01:40;;;;;;;;;;;9.40;1.00;;;;;;5001522;28;19941;-86
2021/12/01 01:04:05;;;;;;;;;;;9.40;1.00;;;;;;5004840;28;19910;-85
2021/12/01 01:06:31;;;;;;;;;;;9.40;1.00;;;;;;4988128;28;19918;-85
2021/12/01 01:08:56;;;;;;;;;;;9.30;1.00;;;;;;5005207;28;19914;-85
2021/12/01 01:16:50;;;;;;;;;;;9.30;1.00;;;;;;5004209;28;19968;-85
2021/12/01 01:19:16;;;;;;;;;;;9.30;1.00;;;;;;4999588;28;20004;-85
2021/12/01 01:21:44;;;;;;;;;;;9.30;1.00;;;;;;4998478;28;19914;-85
2021/12/01 01:24:10;;;;;;;;;;;9.30;1.00;;;;;;5006542;28;19975;-85
2021/12/01 01:26:36;;;;;;;;;;;9.30;1.00;;;;;;5017575;28;19909;-86
2021/12/01 01:29:02;;;;;;;;;;;9.20;1.00;;;;;;5003576;28;19913;-84
2021/12/01 01:31:28;;;;;;;;;;;9.20;1.00;;;;;;4999407;28;20357;-85
2021/12/01 01:33:53;;;;;;;;;;;9.20;1.00;;;;;;4999360;28;19910;-84
2021/12/01 01:36:19;;;;;;;;;;;9.20;1.00;;;;;;5010747;28;19916;-86
2021/12/01 01:38:45;;;;;;;;;;;9.20;1.00;;;;;;5002909;28;19924;-85
2021/12/01 01:41:11;;;;;;;;;;;9.20;1.00;;;;;;5007762;28;19910;-85
2021/12/01 01:43:37;;;;;;;;;;;9.20;1.00;;;;;;4997419;28;19997;-86
2021/12/01 01:46:03;;;;;;;;;;;9.20;1.00;;;;;;5006966;28;19910;-85
2021/12/01 01:48:33;;;;;;;;;;;9.20;1.00;;;;;;4994605;28;19940;-85
2021/12/01 01:51:03;;;;;;;;;;;9.20;1.00;;;;;;5010959;28;19909;-86
2021/12/01 01:53:30;;;;;;;;;;;9.20;1.00;;;;;;5017159;28;19909;-85
2021/12/01 01:55:56;;;;;;;;;;;9.20;1.00;;;;;;5009364;28;19925;-86
2021/12/01 01:58:22;;;;;;;;;;;9.10;1.00;;;;;;4993942;28;20361;-85
2021/12/01 02:00:52;;;;;;;;;;;9.10;1.00;;;;;;4992931;28;19941;-85
2021/12/01 02:03:21;;;;;;;;;;;9.10;1.00;;;;;;4983678;28;19960;-85
2021/12/01 02:05:47;;;;;;;;;;;9.10;1.00;;;;;;5008261;28;19964;-85
2021/12/01 02:08:20;;;;;;;;;;;9.10;1.00;;;;;;5015546;28;19937;-85
2021/12/01 02:10:48;;;;;;;;;;;9.10;1.00;;;;;;4998804;28;20290;-85
2021/12/01 02:13:15;;;;;;;;;;;9.10;1.00;;;;;;4991293;28;19964;-86
2021/12/01 02:15:41;;;;;;;;;;;9.10;1.00;;;;;;5005055;28;19909;-85
2021/12/01 02:18:07;;;;;;;;;;;9.10;1.00;;;;;;4999652;28;19925;-86
2021/12/01 02:20:32;;;;;;;;;;;9.10;1.00;;;;;;5003315;28;20255;-85
2021/12/01 02:22:59;;;;;;;;;;;9.10;1.00;;;;;;5017847;28;19925;-85
2021/12/01 02:25:24;;;;;;;;;;;9.10;1.00;;;;;;4998530;28;19914;-85
2021/12/01 02:27:50;;;;;;;;;;;9.10;1.00;;;;;;5001840;28;19916;-86
2021/12/01 02:30:15;;;;;;;;;;;9.10;1.00;;;;;;4997266;28;20382;-85
2021/12/01 02:32:41;;;;;;;;;;;9.10;1.00;;;;;;4981168;28;20446;-86
2021/12/01 02:35:07;;;;;;;;;;;9.20;1.00;;;;;;5007446;28;20328;-85
2021/12/01 02:37:32;;;;;;;;;;;9.20;1.00;;;;;;4998393;28;19913;-85
2021/12/01 02:39:58;;;;;;;;;;;9.20;1.00;;;;;;5007354;28;19920;-86
2021/12/01 02:42:23;;;;;;;;;;;9.20;1.00;;;;;;5006875;28;19913;-85
2021/12/01 02:44:48;;;;;;;;;;;9.20;1.00;;;;;;5010708;28;20290;-85
2021/12/01 02:47:14;;;;;;;;;;;9.20;1.00;;;;;;4991096;28;19921;-86
2021/12/01 02:49:39;;;;;;;;;;;9.20;1.00;;;;;;4989281;28;19925;-86
2021/12/01 02:52:05;;;;;;;;;;;9.20;1.00;;;;;;5006329;28;19963;-86
2021/12/01 02:54:32;;;;;;;;;;;9.20;1.00;;;;;;5009828;28;20401;-86
2021/12/01 02:56:58;;;;;;;;;;;9.20;1.00;;;;;;4998485;28;19910;-86
2021/12/01 02:59:24;;;;;;;;;;;9.20;1.00;;;;;;5001068;28;21053;-85
2021/12/01 03:01:49;;;;;;;;;;;9.20;1.00;;;;;;4999574;28;19968;-85
2021/12/01 03:04:15;;;;;;;;;;;9.20;1.00;;;;;;4998368;28;20278;-85
2021/12/01 03:06:44;;;;;;;;;;;9.20;1.00;;;;;;4990516;28;19957;-85
2021/12/01 03:09:12;;;;;;;;;;;9.20;1.00;;;;;;5006299;28;20370;-86
2021/12/01 03:11:38;;;;;;;;;;;9.20;1.00;;;;;;5013465;28;19913;-86
2021/12/01 03:14:07;;;;;;;;;;;9.20;1.00;;;;;;5019191;28;19917;-87
2021/12/01 03:16:34;;;;;;;;;;;9.20;1.00;;;;;;5011301;28;19922;-86
2021/12/01 03:18:59;;;;;;;;;;;9.20;1.00;;;;;;4988987;28;19917;-85
2021/12/01 03:21:25;;;;;;;;;;;9.10;1.00;;;;;;5004201;28;20348;-86
2021/12/01 03:23:50;;;;;;;;;;;9.10;1.00;;;;;;4987745;28;19917;-85
2021/12/01 03:26:16;;;;;;;;;;;9.10;1.00;;;;;;4978796;28;19957;-86
2021/12/01 03:28:41;;;;;;;;;;;9.10;1.00;;;;;;4994401;28;20019;-85
2021/12/01 03:31:07;;;;;;;;;;;9.00;1.00;;;;;;5007204;28;19924;-85
2021/12/01 03:33:32;;;;;;;;;;;9.00;1.00;;;;;;4999182;28;19961;-86
2021/12/01 03:35:58;;;;;;;;;;;9.00;1.00;;;;;;5006850;28;19910;-85
2021/12/01 03:38:27;;;;;;;;;;;8.90;1.00;;;;;;5010808;28;19909;-85
2021/12/01 03:40:54;;;;;;;;;;;8.90;1.00;;;;;;5006309;28;19914;-86
2021/12/01 03:43:20;;;;;;;;;;;8.90;1.00;;;;;;4995680;28;19913;-85
2021/12/01 03:45:45;;;;;;;;;;;8.80;1.00;;;;;;4983557;28;20001;-86
2021/12/01 03:48:11;;;;;;;;;;;8.80;1.00;;;;;;5006893;28;20366;-86
2021/12/01 03:50:37;;;;;;;;;;;8.80;1.00;;;;;;5011471;28;20001;-86
2021/12/01 03:53:03;;;;;;;;;;;8.70;1.00;;;;;;4997242;28;19921;-86
2021/12/01 03:55:28;;;;;;;;;;;8.70;1.00;;;;;;4996755;28;19913;-86
2021/12/01 03:57:54;;;;;;;;;;;8.70;1.00;;;;;;5005163;28;19921;-86
2021/12/01 04:00:20;;;;;;;;;;;8.70;1.00;;;;;;4992054;28;20410;-85
2021/12/01 04:02:45;;;;;;;;;;;8.60;1.00;;;;;;5014117;28;19913;-86
2021/12/01 04:05:11;;;;;;;;;;;8.60;1.00;;;;;;4998771;28;19910;-86
2021/12/01 04:07:37;;;;;;;;;;;8.60;1.00;;;;;;4996676;28;19914;-85
2021/12/01 04:10:04;;;;;;;;;;;8.50;1.00;;;;;;4998025;28;20297;-86
2021/12/01 04:12:30;;;;;;;;;;;8.50;1.00;;;;;;4990607;28;19915;-84
2021/12/01 04:14:56;;;;;;;;;;;8.50;1.00;;;;;;4993687;28;19933;-85
2021/12/01 04:17:21;;;;;;;;;;;8.40;1.00;;;;;;4993052;28;19942;-86
2021/12/01 04:19:47;;;;;;;;;;;8.40;1.00;;;;;;4995510;28;20402;-86
2021/12/01 04:22:12;;;;;;;;;;;8.40;1.00;;;;;;4996489;28;19911;-85
2021/12/01 04:24:38;;;;;;;;;;;8.40;1.00;;;;;;5000955;28;19913;-86
2021/12/01 04:27:04;;;;;;;;;;;8.40;1.00;;;;;;4998226;28;19918;-85
2021/12/01 04:29:29;;;;;;;;;;;8.40;1.00;;;;;;4981726;28;20008;-86
2021/12/01 04:31:55;;;;;;;;;;;8.40;1.00;;;;;;4976001;28;19996;-85
2021/12/01 04:34:21;;;;;;;;;;;8.40;1.00;;;;;;4989563;28;20347;-86
2021/12/01 04:36:48;;;;;;;;;;;8.40;1.00;;;;;;4997454;28;19913;-86
2021/12/01 04:39:15;;;;;;;;;;;8.40;1.00;;;;;;5003174;28;19910;-86
2021/12/01 04:41:50;;;;;;;;;;;8.50;1.00;;;;;;4984302;28;19917;-86
2021/12/01 04:44:15;;;;;;;;;;;8.50;1.00;;;;;;5015004;28;20358;-86
2021/12/01 04:46:46;;;;;;;;;;;8.50;1.00;;;;;;5009513;28;19910;-86
2021/12/01 04:49:13;;;;;;;;;;;8.50;1.00;;;;;;5008406;28;19953;-86
2021/12/01 04:51:41;;;;;;;;;;;8.50;1.00;;;;;;5004305;28;19918;-86
2021/12/01 04:54:06;;;;;;;;;;;8.50;1.00;;;;;;4993889;28;19914;-85
2021/12/01 04:56:32;;;;;;;;;;;8.50;1.00;;;;;;5002755;28;20370;-86
2021/12/01 04:58:57;;;;;;;;;;;8.60;1.00;;;;;;5013382;28;19909;-86
2021/12/01 05:01:23;;;;;;;;;;;8.60;1.00;;;;;;5006815;28;19910;-86
2021/12/01 05:03:48;;;;;;;;;;;8.60;1.00;;;;;;4998865;28;19918;-85
2021/12/01 05:06:16;;;;;;;;;;;8.60;1.00;;;;;;4996035;28;19940;-86
2021/12/01 05:08:41;;;;;;;;;;;8.60;1.00;;;;;;4990832;28;20381;-86
2021/12/01 05:11:07;;;;;;;;;;;8.60;1.00;;;;;;4988207;28;19910;-86
2021/12/01 05:13:32;;;;;;;;;;;8.60;1.00;;;;;;4979974;28;19925;-85
2021/12/01 05:15:58;;;;;;;;;;;8.60;1.00;;;;;;5007382;28;19909;-85
2021/12/01 05:18:23;;;;;;;;;;;8.50;1.00;;;;;;5003118;28;19975;-86
2021/12/01 05:20:49;;;;;;;;;;;8.50;1.00;;;;;;5003945;28;19985;-85
2021/12/01 05:23:15;;;;;;;;;;;8.50;1.00;;;;;;4999265;28;20033;-86
2021/12/01 05:25:44;;;;;;;;;;;8.50;1.00;;;;;;5004934;28;19910;-85
2021/12/01 05:28:10;;;;;;;;;;;8.40;1.00;;;;;;4995275;28;19910;-86
2021/12/01 05:30:35;;;;;;;;;;;8.40;1.00;;;;;;5010291;28;19905;-86
2021/12/01 05:33:06;;;;;;;;;;;8.40;1.00;;;;;;5000136;28;19910;-86
2021/12/01 05:35:32;;;;;;;;;;;8.40;1.00;;;;;;4996260;28;20362;-86
2021/12/01 05:37:57;;;;;;;;;;;8.40;1.00;;;;;;5006825;28;19956;-86
2021/12/01 05:40:23;;;;;;;;;;;8.40;1.00;;;;;;4995223;28;19914;-85
2021/12/01 05:42:48;;;;;;;;;;;8.40;1.00;;;;;;4997897;28;19916;-86
2021/12/01 05:45:14;;;;;;;;;;;8.40;1.00;;;;;;4992933;28;19917;-86
2021/12/01 05:47:39;;;;;;;;;;;8.40;1.00;;;;;;4998273;28;19921;-86
2021/12/01 05:50:05;;;;;;;;;;;8.40;1.00;;;;;;5003503;28;20004;-86
2021/12/01 05:52:33;;;;;;;;;;;8.50;1.00;;;;;;4997422;28;19917;-85
2021/12/01 05:54:59;;;;;;;;;;;8.50;1.00;;;;;;4990924;28;20309;-85
2021/12/01 05:57:24;;;;;;;;;;;8.50;1.00;;;;;;5000140;28;19918;-86
2021/12/01 05:59:50;;;;;;;;;;;8.50;1.00;;;;;;5006559;28;19925;-86
2021/12/01 06:02:15;;;;;;;;;;;8.50;1.00;;;;;;4989157;28;19914;-86
2021/12/01 06:04:41;;;;;;;;;;;8.50;1.00;;;;;;4997983;28;19956;-86
2021/12/01 06:07:07;;;;;;;;;;;8.60;1.00;;;;;;4997026;28;19913;-86
2021/12/01 06:09:32;;;;;;;;;;;8.60;1.00;;;;;;5011563;28;20259;-86
2021/12/01 06:11:58;;;;;;;;;;;8.60;1.00;;;;;;4994871;28;19917;-86
2021/12/01 06:14:23;;;;;;;;;;;8.60;1.00;;;;;;5003720;28;20015;-86
2021/12/01 06:16:49;;;;;;;;;;;8.60;99.90;;;;;;4995670;28;19914;-86
2021/12/01 06:19:14;;;;;;;;;;;8.70;99.90;;;;;;4996358;28;19961;-86
2021/12/01 06:21:40;;;;;;;;;;;8.70;99.90;;;;;;4997137;28;19918;-86
2021/12/01 06:24:05;;;;;;;;;;;8.70;99.90;;;;;;5004628;28;20432;-86
2021/12/01 06:26:31;;;;;;;;;;;8.70;99.90;;;;;;4996978;28;19910;-86
2021/12/01 06:28:56;;;;;;;;;;;8.70;99.90;;;;;;4996425;28;19961;-85
2021/12/01 06:31:22;;;;;;;;;;;8.70;99.90;;;;;;4996000;28;19917;-86
2021/12/01 06:33:47;;;;;;;;;;;8.70;99.90;;;;;;4982841;28;19968;-86
2021/12/01 06:36:13;;;;;;;;;;;8.80;99.90;;;;;;4994453;28;19920;-86
2021/12/01 06:38:39;;;;;;;;;;;8.80;99.90;;;;;;4996450;28;19909;-86
2021/12/01 06:41:05;;;;;;;;;;;8.80;99.90;;;;;;5009160;28;19937;-86
2021/12/01 06:43:31;;;;;;;;;;;8.80;99.90;;;;;;5003956;28;19910;-85
2021/12/01 06:45:56;;;;;;;;;;;8.90;99.90;;;;;;5002050;28;19941;-85
2021/12/01 06:48:22;;;;;;;;;;;9.00;99.90;;;;;;5013561;28;20389;-85
2021/12/01 06:50:47;;;;;;;;;;;9.00;99.90;;;;;;5007971;28;19914;-86
2021/12/01 06:53:12;;;;;;;;;;;9.10;99.90;;;;;;4996687;28;19921;-85
2021/12/01 06:55:38;;;;;;;;;;;9.10;99.90;;;;;;4997126;28;19910;-86
2021/12/01 06:58:03;;;;;;;;;;;9.10;99.90;;;;;;5022309;28;20008;-85
2021/12/01 07:00:30;;;;;;;;;;;9.00;99.90;;;;;;5003197;28;19933;-85
2021/12/01 07:02:55;;;;;;;;;;;9.00;99.90;;;;;;5000767;28;19957;-84
2021/12/01 07:05:21;;;;;;;;;;;9.00;99.90;;;;;;4986631;28;19915;-84
2021/12/01 07:07:46;;;;;;;;;;;9.00;99.90;;;;;;4984575;28;20355;-84
2021/12/01 07:10:12;;;;;;;;;;;9.00;99.90;;;;;;4983823;28;19986;-84
2021/12/01 07:12:39;;;;;;;;;;;9.00;99.90;;;;;;4997802;28;19921;-85
2021/12/01 07:15:05;;;;;;;;;;;9.00;99.90;;;;;;4998213;28;19914;-85
2021/12/01 07:17:30;;;;;;;;;;;9.00;99.90;;;;;;4994758;28;19964;-86
2021/12/01 07:22:18;;;;;;;;;;;9.00;99.90;;;;;;5094556;27;19922;-80
2021/12/01 07:24:44;;;;;;;;;;;9.00;99.90;;;;;;5065886;28;20000;-81
2021/12/01 07:27:10;;;;;;;;;;;9.00;99.90;;;;;;5059872;28;19921;-79
2021/12/01 07:29:36;;;;;;;;;;;9.00;99.90;;;;;;5062682;28;19912;-80
2021/12/01 07:32:02;;;;;;;;;;;9.00;99.90;;;;;;5070931;28;19994;-80
2021/12/01 07:34:28;;;;;;;;;;;9.10;99.90;;;;;;5063454;28;20023;-80
2021/12/01 07:36:53;;;;;;;;;;;9.10;99.90;;;;;;5074342;28;19955;-80
2021/12/01 07:39:19;;;;;;;;;;;9.10;99.90;;;;;;5074453;28;19935;-79
2021/12/01 07:41:46;;;;;;;;;;;9.10;99.90;;;;;;5071745;28;19988;-80
2021/12/01 07:44:11;;;;;;;;;;;9.10;99.90;;;;;;5071445;28;19917;-79
2021/12/01 07:46:37;;;;;;;;;;;9.10;99.90;;;;;;5072393;28;19970;-79
2021/12/01 07:49:02;;;;;;;;;;;9.10;99.90;;;;;;5074273;28;20365;-80
2021/12/01 07:51:28;;;;;;;;;;;9.10;1.00;;;;;;5072755;28;19913;-79
2021/12/01 07:53:55;;;;;;;;;;;9.10;1.00;;;;;;5070526;28;19917;-80
2021/12/01 07:56:20;;;;;;;;;;;9.00;1.00;;;;;;5068180;28;19916;-79
2021/12/01 07:58:46;;;;;;;;;;;9.00;1.00;;;;;;5055143;28;20339;-79
2021/12/01 08:01:11;;;;;;;;;;;9.00;1.00;;;;;;5059068;28;19923;-80
2021/12/01 08:03:37;;;;;;;;;;;9.00;1.00;;;;;;5061844;28;21218;-79
2021/12/01 08:06:02;;;;;;;;;;;9.00;1.00;;;;;;5061401;28;19913;-79
2021/12/01 08:08:29;;;;;;;;;;;9.00;1.00;;;;;;5066089;28;19921;-79
2021/12/01 08:10:55;;;;;;;;;;;9.00;1.00;;;;;;5066219;28;19924;-79
2021/12/01 08:13:21;;;;;;;;;;;9.00;1.00;;;;;;5056710;28;19962;-79
2021/12/01 08:15:47;;;;;;;;;;;9.00;1.00;;;;;;5063569;28;19976;-79
2021/12/01 08:18:13;;;;;;;;;;;9.00;1.00;;;;;;5061012;28;19921;-79
2021/12/01 08:20:39;;;;;;;;;;;9.10;1.00;;;;;;5069166;28;19916;-79
2021/12/01 08:23:04;;;;;;;;;;;9.10;1.00;;;;;;5091355;28;19913;-79
2021/12/01 08:25:30;;;;;;;;;;;9.10;1.00;;;;;;5073837;28;21690;-79
2021/12/01 08:27:55;;;;;;;;;;;9.20;1.00;;;;;;5086413;28;19917;-79
2021/12/01 08:30:21;;;;;;;;;;;9.30;1.00;;;;;;5071797;28;19934;-79
2021/12/01 08:32:46;;;;;;;;;;;9.20;1.00;;;;;;5052473;28;19913;-79
2021/12/01 08:35:12;;;;;;;;;;;9.20;1.00;;;;;;5063440;28;19912;-79
2021/12/01 08:37:38;;;;;;;;;;;9.20;1.00;;;;;;5070655;28;19920;-79
2021/12/01 08:40:04;;;;;;;;;;;9.20;1.00;;;;;;5065354;28;19912;-78
2021/12/01 08:42:29;;;;;;;;;;;9.20;1.00;;;;;;5082035;28;19912;-79
2021/12/01 08:44:55;;;;;;;;;;;9.30;1.00;;;;;;5078863;28;20382;-79
2021/12/01 08:47:21;;;;;;;;;;;9.30;1.00;;;;;;5072041;28;19912;-79
2021/12/01 08:49:47;;;;;;;;;;;9.40;1.00;;;;;;5067366;28;20395;-79
2021/12/01 08:52:13;;;;;;;;;;;9.40;1.00;;;;;;5062356;28;19912;-79
2021/12/01 08:54:38;;;;;;;;;;;9.40;1.00;;;;;;5065412;28;19931;-79
2021/12/01 08:57:04;;;;;;;;;;;9.40;1.00;;;;;;5071730;28;19981;-80
2021/12/01 08:59:30;;;;;;;;;;;9.40;1.00;;;;;;5079899;28;19912;-79
2021/12/01 09:01:56;;;;;;;;;;;9.30;1.00;;;;;;5069535;28;19920;-79
2021/12/01 09:04:21;;;;;;;;;;;9.30;1.00;;;;;;5071379;28;20466;-80
2021/12/01 09:06:47;;;;;;;;;;;9.40;1.00;;;;;;5054756;28;19909;-79
2021/12/01 09:09:18;;;;;;;;;;;9.30;1.00;;;;;;5059287;28;19927;-79
2021/12/01 09:11:47;;;;;;;;;;;9.30;1.00;;;;;;5061448;28;19916;-79
2021/12/01 09:14:13;;;;;;;;;;;9.40;1.00;;;;;;5076948;28;20355;-78
2021/12/01 09:16:40;;;;;;;;;;;9.50;1.00;;;;;;5050621;28;19954;-79
2021/12/01 09:19:05;;;;;;;;;;;9.50;1.00;;;;;;5073106;28;19913;-79
2021/12/01 09:21:30;;;;;;;;;;;9.50;1.00;;;;;;5051935;28;19916;-79
2021/12/01 09:23:56;;;;;;;;;;;9.50;1.00;;;;;;5046008;28;19999;-78
2021/12/01 09:26:21;;;;;;;;;;;9.60;1.00;;;;;;5054440;28;19919;-79
2021/12/01 09:28:47;;;;;;;;;;;9.80;1.00;;;;;;5057875;28;20331;-78
2021/12/01 09:31:12;;;;;;;;;;;9.80;1.00;;;;;;5065656;28;19920;-78
2021/12/01 09:33:38;;;;;;;;;;;9.90;1.00;;;;;;5070341;28;19924;-78
2021/12/01 09:36:03;;;;;;;;;;;9.90;1.00;;;;;;5071876;28;19920;-78
2021/12/01 09:38:29;;;;;;;;;;;10.00;1.00;;;;;;5054497;28;19979;-78
2021/12/01 09:40:57;;;;;;;;;;;10.20;99.90;;;;;;5076843;28;19916;-78
2021/12/01 09:43:25;;;;;;;;;;;10.30;99.90;;;;;;5059910;28;19986;-79
2021/12/01 09:45:51;;;;;;;;;;;10.30;99.90;;;;;;5061534;28;19917;-78
2021/12/01 09:48:17;;;;;;;;;;;10.20;99.90;;;;;;5067441;28;19915;-78
2021/12/01 09:50:43;;;;;;;;;;;10.20;99.90;;;;;;5069204;28;19920;-78
2021/12/01 09:53:08;;;;;;;;;;;10.00;99.90;;;;;;5047378;28;19908;-78
2021/12/01 09:55:35;;;;;;;;;;;10.00;99.90;;;;;;5071972;28;19943;-79
2021/12/01 09:58:06;;;;;;;;;;;10.00;99.90;;;;;;5065838;28;19913;-78
2021/12/01 10:00:32;;;;;;;;;;;9.90;99.90;;;;;;5061202;28;20022;-78
2021/12/01 10:02:58;;;;;;;;;;;9.80;1.00;;;;;;5064349;28;19947;-78
2021/12/01 10:05:42;;;;;;;;;;;9.80;1.00;;;;;;5068712;28;19912;-78
2021/12/01 10:08:12;;;;;;;;;;;9.90;1.00;;;;;;5069078;28;19965;-78
2021/12/01 10:10:38;;;;;;;;;;;9.90;1.00;;;;;;5051275;28;21067;-78
2021/12/01 10:13:03;;;;;;;;;;;9.90;1.00;;;;;;5079937;28;19927;-78
2021/12/01 10:15:29;;;;;;;;;;;10.00;1.00;;;;;;5062935;28;22281;-77
2021/12/01 10:18:11;;;;;;;;;;;10.00;1.00;;;;;;5060932;28;19966;-78
2021/12/01 10:20:37;;;;;;;;;;;10.20;1.00;;;;;;5073665;28;19995;-78
2021/12/01 10:23:09;;;;;;;;;;;10.50;99.90;;;;;;5061184;28;19944;-78
2021/12/01 10:25:34;;;;;;;;;;;10.80;99.90;;;;;;5072203;28;19916;-78
2021/12/01 10:28:00;;;;;;;;;;;10.90;99.90;;;;;;5072461;28;20019;-78
2021/12/01 10:30:39;;;;;;;;;;;11.10;20.60;;;;;;5072729;28;19912;-78
2021/12/01 10:33:10;;;;;;;;;;;11.10;1.00;;;;;;5059005;28;19916;-78
2021/12/01 10:35:36;;;;;;;;;;;11.00;1.00;;;;;;5051222;28;20047;-77
2021/12/01 10:38:02;;;;;;;;;;;11.20;1.00;;;;;;5068793;28;20388;-78
2021/12/01 10:40:28;;;;;;;;;;;11.60;1.00;;;;;;5055191;28;19999;-78
2021/12/01 10:42:56;;;;;;;;;;;11.70;99.90;;;;;;5046343;28;19939;-78
2021/12/01 10:45:24;;;;;;;;;;;11.50;99.90;;;;;;5068340;28;19935;-78
2021/12/01 10:47:49;;;;;;;;;;;11.50;99.90;;;;;;5071289;28;20003;-78
2021/12/01 10:50:20;;;;;;;;;;;11.50;99.90;;;;;;5087274;28;19959;-78
2021/12/01 10:52:49;;;;;;;;;;;11.40;99.90;;;;;;5051137;28;20441;-78
2021/12/01 10:55:18;;;;;;;;;;;11.40;99.90;;;;;;5071788;28;19924;-78
2021/12/01 10:57:47;;;;;;;;;;;11.50;99.90;;;;;;5061702;28;20526;-78
2021/12/01 11:00:13;;;;;;;;;;;11.60;99.90;;;;;;5062272;28;19928;-78
2021/12/01 11:02:38;;;;;;;;;;;11.70;99.90;;;;;;5076636;28;19981;-78
2021/12/01 11:05:04;;;;;;;;;;;11.90;16.80;;;;;;5052408;28;20412;-78
2021/12/01 11:07:32;;;;;;;;;;;11.70;1.00;;;;;;5054319;28;19923;-78
2021/12/01 11:10:09;;;;;;;;;;;11.60;1.00;;;;;;5071107;28;19920;-78
2021/12/01 11:12:35;;;;;;;;;;;11.50;77.20;;;;;;5067334;28;20007;-78
2021/12/01 11:15:15;;;;;;;;;;;11.40;99.90;;;;;;5061248;28;20384;-78
2021/12/01 11:17:41;;;;;;;;;;;11.30;99.90;;;;;;5064555;28;19913;-78
2021/12/01 11:20:07;;;;;;;;;;;11.20;1.00;;;;;;5068618;28;19924;-78
2021/12/01 11:22:36;;;;;;;;;;;11.00;1.00;;;;;;5066526;28;19920;-79
2021/12/01 11:25:18;;;;;;;;;;;10.80;99.90;;;;;;5067804;28;20300;-79
2021/12/01 11:27:44;;;;;;;;;;;10.60;1.00;;;;;;5075388;28;19976;-78
2021/12/01 11:30:09;;;;;;;;;;;10.50;1.00;;;;;;5076968;28;19992;-78
2021/12/01 11:32:35;;;;;;;;;;;10.30;1.00;;;;;;5068057;28;19942;-79
2021/12/01 11:35:00;;;;;;;;;;;10.20;1.00;;;;;;5061233;28;19966;-78
2021/12/01 11:37:26;;;;;;;;;;;10.20;1.00;;;;;;5064340;28;19913;-79
2021/12/01 11:39:51;;;;;;;;;;;10.10;1.00;;;;;;5074075;28;19908;-78
2021/12/01 11:42:17;;;;;;;;;;;10.00;1.00;;;;;;5044453;28;19916;-78
2021/12/01 11:44:42;;;;;;;;;;;10.00;1.00;;;;;;5067977;28;19919;-78
2021/12/01 11:47:08;;;;;;;;;;;9.90;1.00;;;;;;5093766;28;19913;-78
2021/12/01 11:49:34;;;;;;;;;;;9.90;1.00;;;;;;5067951;28;19913;-78
2021/12/01 11:52:03;;;;;;;;;;;9.80;1.00;;;;;;5060172;28;19939;-78
2021/12/01 11:54:31;;;;;;;;;;;9.80;1.00;;;;;;5083054;28;19916;-78
2021/12/01 11:57:04;;;;;;;;;;;9.70;1.00;;;;;;5063489;28;19956;-78
2021/12/01 11:59:31;;;;;;;;;;;9.70;1.00;;;;;;5065642;28;19948;-78
2021/12/01 12:02:02;;;;;;;;;;;9.60;1.00;;;;;;5061585;28;20335;-78
2021/12/01 12:04:27;;;;;;;;;;;9.60;1.00;;;;;;5070170;28;19919;-78
2021/12/01 12:07:04;;;;;;;;;;;9.60;1.00;;;;;;5071388;28;19913;-78
2021/12/01 12:09:30;;;;;;;;;;;9.50;1.00;;;;;;5059103;28;19916;-78
2021/12/01 12:11:58;;;;;;;;;;;9.50;1.00;;;;;;5065542;28;19912;-79
2021/12/01 12:14:28;;;;;;;;;;;9.50;1.00;;;;;;5078030;28;19965;-78
2021/12/01 12:17:06;;;;;;;;;;;9.50;99.90;;;;;;5069178;28;19920;-79
2021/12/01 12:19:44;;;;;;;;;;;9.50;99.90;;;;;;5071986;28;19965;-79
2021/12/01 12:22:11;;;;;;;;;;;9.50;99.90;;;;;;5074193;28;19916;-79
2021/12/01 12:24:45;;;;;;;;;;;9.60;99.90;;;;;;5054621;28;19922;-79
2021/12/01 12:27:29;;;;;;;;;;;9.80;99.90;;;;;;5077541;28;20380;-79
2021/12/01 12:29:55;;;;;;;;;;;9.90;99.90;;;;;;5062447;28;19920;-79
2021/12/01 12:32:22;;;;;;;;;;;9.90;99.90;;;;;;5050341;28;19919;-79
2021/12/01 12:34:49;;;;;;;;;;;9.90;72.00;;;;;;5067288;28;20535;-79
2021/12/01 12:37:29;;;;;;;;;;;9.80;24.10;;;;;;5070270;28;19919;-79
2021/12/01 12:39:56;;;;;;;;;;;9.80;52.70;;;;;;5063984;28;19912;-79
2021/12/01 12:42:22;;;;;;;;;;;9.70;98.40;;;;;;5061556;28;20026;-79
2021/12/01 12:44:49;;;;;;;;;;;9.70;1.00;;;;;;5053733;28;19912;-80
2021/12/01 12:47:27;;;;;;;;;;;9.70;28.50;;;;;;5049889;28;20368;-79
2021/12/01 12:49:52;;;;;;;;;;;9.80;1.00;;;;;;5083810;28;19917;-79
2021/12/01 12:52:24;;;;;;;;;;;10.00;1.00;;;;;;5073388;28;20322;-79
2021/12/01 12:54:50;;;;;;;;;;;10.20;99.90;;;;;;5066975;28;19912;-79
2021/12/01 12:57:16;;;;;;;;;;;10.30;99.90;;;;;;5070561;28;19959;-78
2021/12/01 12:59:42;;;;;;;;;;;10.30;99.90;;;;;;5076306;28;19920;-77
2021/12/01 13:02:09;;;;;;;;;;;10.40;38.00;;;;;;5068866;28;19917;-79
2021/12/01 13:04:51;;;;;;;;;;;10.30;1.00;;;;;;5067108;28;19973;-79
2021/12/01 13:07:28;;;;;;;;;;;10.30;99.90;;;;;;5057252;28;19912;-79
2021/12/01 13:10:06;;;;;;;;;;;10.20;99.90;;;;;;5049262;28;19913;-80
2021/12/01 13:12:49;;;;;;;;;;;10.20;99.90;;;;;;5059616;28;20000;-78
2021/12/01 13:15:18;;;;;;;;;;;10.10;33.70;;;;;;5077919;28;19919;-79
2021/12/01 13:17:50;;;;;;;;;;;10.10;99.90;;;;;;5052077;28;19966;-79
2021/12/01 13:20:17;;;;;;;;;;;10.20;1.00;;;;;;5075878;28;19919;-79
2021/12/01 13:22:57;;;;;;;;;;;10.20;1.00;;;;;;5058901;28;20380;-79
2021/12/01 13:25:23;;;;;;;;;;;10.20;1.00;;;;;;5074426;28;20335;-79
2021/12/01 13:27:48;;;;;;;;;;;10.20;1.00;;;;;;5059836;28;19912;-79
2021/12/01 13:30:14;;;;;;;;;;;10.10;1.00;;;;;;5077380;28;20007;-79
2021/12/01 13:32:40;;;;;;;;;;;10.00;1.00;;;;;;5058289;28;19917;-78
2021/12/01 13:35:05;;;;;;;;;;;10.00;1.00;;;;;;5071054;28;19913;-78
2021/12/01 13:37:31;;;;;;;;;;;9.90;1.00;;;;;;5065752;28;20304;-78
2021/12/01 13:39:56;;;;;;;;;;;9.80;1.00;;;;;;5070133;28;19916;-79
2021/12/01 13:42:23;;;;;;;;;;;9.80;1.00;;;;;;5074806;28;20455;-78
2021/12/01 13:44:50;;;;;;;;;;;9.70;1.00;;;;;;5065752;28;19920;-79
2021/12/01 13:47:17;;;;;;;;;;;9.60;1.00;;;;;;5074167;28;19939;-79
2021/12/01 13:49:51;;;;;;;;;;;9.60;1.00;;;;;;5069140;28;20583;-78
2021/12/01 13:52:28;;;;;;;;;;;9.60;1.00;;;;;;5058709;28;20265;-78
2021/12/01 13:54:55;;;;;;;;;;;9.60;1.00;;;;;;5055278;28;20021;-78
2021/12/01 13:57:20;;;;;;;;;;;9.50;1.00;;;;;;5054016;28;20361;-78
2021/12/01 13:59:48;;;;;;;;;;;9.60;1.00;;;;;;5074156;28;19916;-78
2021/12/01 14:02:30;;;;;;;;;;;9.50;3.50;;;;;;5072868;28;19912;-78
2021/12/01 14:04:57;;;;;;;;;;;9.50;4.60;;;;;;5054060;28;20298;-78
2021/12/01 14:07:23;;;;;;;;;;;9.40;99.90;;;;;;5035413;28;19962;-78
2021/12/01 14:09:56;;;;;;;;;;;9.40;99.90;;;;;;5043910;28;19935;-79
2021/12/01 14:12:22;;;;;;;;;;;9.40;99.90;;;;;;5069285;28;19912;-78
2021/12/01 14:14:48;;;;;;;;;;;9.40;99.90;;;;;;5034994;28;19917;-77
2021/12/01 14:17:14;;;;;;;;;;;9.40;99.90;;;;;;5053720;28;20336;-78
2021/12/01 14:19:40;;;;;;;;;;;9.50;99.90;;;;;;5056112;28;19923;-78
2021/12/01 14:22:13;;;;;;;;;;;9.50;99.90;;;;;;5051477;28;19920;-78
2021/12/01 14:24:48;;;;;;;;;;;9.40;99.90;;;;;;5056799;28;19912;-78
2021/12/01 14:27:14;;;;;;;;;;;9.40;99.90;;;;;;5074171;28;19916;-78
2021/12/01 14:29:39;;;;;;;;;;;9.30;99.90;;;;;;5079123;28;19924;-78
2021/12/01 14:32:06;;;;;;;;;;;9.30;99.90;;;;;;5071095;28;19967;-78
2021/12/01 14:34:33;;;;;;;;;;;9.30;99.90;;;;;;5072615;28;19909;-78
2021/12/01 14:37:00;;;;;;;;;;;9.20;99.90;;;;;;5058176;28;19959;-78
2021/12/01 14:39:26;;;;;;;;;;;9.20;99.90;;;;;;5052025;28;20015;-79
2021/12/01 14:41:52;;;;;;;;;;;9.20;99.90;;;;;;5061754;28;20022;-79